Аэропорт: Шереметьево. Москва

ICAO: UUEE

METAR:
2018/12/17 10:30
UUEE 171030Z 07002MPS 4200 BR NSC M14/M15 Q1035 R06R/410351 R06C/410345 NOSIG
METAR:
2018/12/17 09:21
TAF UUEE 170749Z 1709/1809 11002MPS 6000 FEW004 SCT011 TXM11/1712Z TNM17/1806Z 
      TEMPO 1715/1806 1200 IC BR FEW001